Terminal Aerodrome Forecast
Issued by NWS

Home | Current Version | Previous Version | Text Only | Print | Product List | Glossary On
Versions: 1 2 3 4 5 6 7 8 9 10 11 12 13
000
FTUS45 KGGW 241100 RRA
TAFSDY
TAF
KSDY 241142Z 2412/2512 12011KT P6SM VCTS BKN060CB
     FM241330 13010KT P6SM SCT150
     FM242100 20011KT P6SM VCTS BKN050CB
     FM250100 34012G22KT P6SM BKN250
     FM250900 29007KT P6SM SKC
      AMD LTD TO CLD VIS AND WIND=

USA.gov is the U.S. government's official web portal to all federal, state and local government web resources and services.